createdAt,value
2018-01-17T00:00:10.810Z,98025.88
2018-01-17T00:01:16.565Z,98016.87
2018-01-17T00:02:22.275Z,98016.94
2018-01-17T00:03:27.986Z,98019.49
2018-01-17T00:04:33.714Z,98018.20
2018-01-17T00:05:39.453Z,98014.81
2018-01-17T00:06:46.201Z,98015.61
2018-01-17T00:07:51.934Z,98010.09
2018-01-17T00:08:58.024Z,98009.30
2018-01-17T00:10:03.748Z,98011.00
2018-01-17T00:11:10.113Z,98009.37
2018-01-17T00:12:15.851Z,98009.30
2018-01-17T00:13:21.599Z,98015.23
2018-01-17T00:14:27.370Z,98015.76
2018-01-17T00:15:33.849Z,98011.08
2018-01-17T00:16:39.571Z,98005.07
2018-01-17T00:17:45.299Z,98010.70
2018-01-17T00:18:51.789Z,98014.58
2018-01-17T00:19:57.499Z,98005.07
2018-01-17T00:21:04.080Z,98006.33
2018-01-17T00:22:09.903Z,98008.45
2018-01-17T00:23:16.435Z,98000.77
2018-01-17T00:24:22.159Z,98003.58
2018-01-17T00:25:27.875Z,98006.63
2018-01-17T00:26:33.631Z,98007.36
2018-01-17T00:27:39.361Z,98012.53
2018-01-17T00:28:45.118Z,98011.61
2018-01-17T00:29:50.831Z,98004.73
2018-01-17T00:30:56.547Z,98002.14
2018-01-17T00:32:03.047Z,98004.42
2018-01-17T00:33:08.783Z,98000.16
2018-01-17T00:34:14.560Z,98002.41
2018-01-17T00:35:20.330Z,98003.28
2018-01-17T00:36:26.813Z,98003.70
2018-01-17T00:37:32.536Z,98004.53
2018-01-17T00:38:39.037Z,98005.83
2018-01-17T00:39:44.788Z,98006.70
2018-01-17T00:40:50.761Z,98005.80
2018-01-17T00:41:56.492Z,98008.42
2018-01-17T00:43:02.213Z,98000.66
2018-01-17T00:44:07.921Z,97996.73
2018-01-17T00:45:13.689Z,97998.64
2018-01-17T00:46:19.433Z,97996.81
2018-01-17T00:47:25.150Z,97997.61
2018-01-17T00:48:30.871Z,97999.33
2018-01-17T00:49:37.383Z,98001.53
2018-01-17T00:50:43.187Z,97995.41
2018-01-17T00:51:48.900Z,97993.23
2018-01-17T00:52:55.394Z,97992.74
2018-01-17T00:54:01.108Z,97998.30
2018-01-17T00:55:06.515Z,97990.23
2018-01-17T00:56:13.058Z,97992.52
2018-01-17T00:57:19.023Z,97991.56
2018-01-17T00:58:26.234Z,97992.89
2018-01-17T00:59:31.960Z,97991.56
2018-01-17T01:00:38.442Z,97994.53
2018-01-17T01:01:44.177Z,97991.06
2018-01-17T01:02:49.920Z,97990.23
2018-01-17T01:03:55.636Z,97988.56
2018-01-17T01:05:02.119Z,97989.16
2018-01-17T01:06:07.831Z,97987.45
2018-01-17T01:07:15.072Z,97987.91
2018-01-17T01:08:20.805Z,97986.27
2018-01-17T01:09:26.514Z,97984.52
2018-01-17T01:10:32.254Z,97990.53
2018-01-17T01:11:37.968Z,97986.73
2018-01-17T01:12:44.489Z,97981.48
2018-01-17T01:13:50.239Z,97988.75
2018-01-17T01:14:55.974Z,97992.28
2018-01-17T01:16:01.735Z,97988.86
2018-01-17T01:17:07.457Z,97980.27
2018-01-17T01:18:13.594Z,97976.84
2018-01-17T01:19:19.316Z,97980.69
2018-01-17T01:20:25.033Z,97978.24
2018-01-17T01:21:30.750Z,97979.35
2018-01-17T01:22:37.384Z,97979.88
2018-01-17T01:23:43.196Z,97969.12
2018-01-17T01:24:48.935Z,97970.83
2018-01-17T01:25:54.672Z,97970.00
2018-01-17T01:27:01.155Z,97970.48
2018-01-17T01:28:06.895Z,97971.06
2018-01-17T01:29:12.650Z,97966.72
2018-01-17T01:30:18.397Z,97966.77
2018-01-17T01:31:24.112Z,97970.52
2018-01-17T01:32:29.839Z,97975.28
2018-01-17T01:33:35.582Z,97973.64
2018-01-17T01:34:41.338Z,97968.55
2018-01-17T01:35:47.060Z,97966.80
2018-01-17T01:36:52.834Z,97968.89
2018-01-17T01:37:58.583Z,97960.06
2018-01-17T01:39:03.785Z,97961.85
2018-01-17T01:40:09.533Z,97963.11
2018-01-17T01:41:15.266Z,97965.27
2018-01-17T01:42:20.644Z,97959.34
2018-01-17T01:43:26.371Z,97957.59
2018-01-17T01:44:32.106Z,97964.82
2018-01-17T01:45:37.850Z,97972.08
2018-01-17T01:46:43.599Z,97969.99
2018-01-17T01:47:49.317Z,97971.70
2018-01-17T01:49:02.652Z,97971.28
2018-01-17T01:50:08.375Z,97976.45
2018-01-17T01:51:14.196Z,97974.29
2018-01-17T01:52:20.995Z,97982.88
2018-01-17T01:53:26.712Z,97984.22
2018-01-17T01:54:32.456Z,97976.84
2018-01-17T01:55:38.177Z,97978.09
2018-01-17T01:56:44.682Z,97975.81
2018-01-17T01:57:50.567Z,97972.35
2018-01-17T01:58:56.310Z,97976.23
2018-01-17T02:00:02.071Z,97979.99
2018-01-17T02:01:07.438Z,97977.72
2018-01-17T02:02:13.198Z,97978.55
2018-01-17T02:03:19.002Z,97974.22
2018-01-17T02:04:24.712Z,97967.30
2018-01-17T02:05:31.183Z,97960.38
2018-01-17T02:06:36.895Z,97961.59
2018-01-17T02:07:43.406Z,97957.63
2018-01-17T02:08:49.136Z,97950.22
2018-01-17T02:09:54.859Z,97950.67
2018-01-17T02:11:01.362Z,97950.59
2018-01-17T02:12:07.135Z,97944.05
2018-01-17T02:13:14.386Z,97942.61
2018-01-17T02:14:20.133Z,97949.91
2018-01-17T02:15:25.870Z,97948.66
2018-01-17T02:16:31.606Z,97951.62
2018-01-17T02:17:37.347Z,97954.17
2018-01-17T02:18:43.186Z,97955.50
2018-01-17T02:19:48.918Z,97955.42
2018-01-17T02:20:54.639Z,97953.18
2018-01-17T02:22:00.358Z,97956.61
2018-01-17T02:23:06.856Z,97952.19
2018-01-17T02:24:12.592Z,97949.22
2018-01-17T02:25:18.310Z,97948.80
2018-01-17T02:26:24.024Z,97947.52
2018-01-17T02:27:29.749Z,97949.30
2018-01-17T02:28:35.471Z,97948.01
2018-01-17T02:29:41.226Z,97954.89
2018-01-17T02:30:46.958Z,97948.95
2018-01-17T02:31:52.678Z,97946.11
2018-01-17T02:32:58.436Z,97951.89
2018-01-17T02:34:04.153Z,97949.76
2018-01-17T02:35:09.928Z,97949.30
2018-01-17T02:36:15.639Z,97945.54
2018-01-17T02:37:21.379Z,97939.08
2018-01-17T02:38:27.103Z,97941.35
2018-01-17T02:39:49.723Z,97940.52
2018-01-17T02:40:56.270Z,97949.64
2018-01-17T02:42:01.992Z,97938.88
2018-01-17T02:43:08.699Z,97942.72
2018-01-17T02:44:15.217Z,97942.38
2018-01-17T02:45:20.979Z,97941.47
2018-01-17T02:46:26.730Z,97937.97
2018-01-17T02:47:33.235Z,97928.37
2018-01-17T02:48:38.968Z,97936.06
2018-01-17T02:49:44.676Z,97935.57
2018-01-17T02:50:51.152Z,97931.27
2018-01-17T02:51:56.908Z,97932.11
2018-01-17T02:53:02.638Z,97925.30
2018-01-17T02:54:08.384Z,97926.70
2018-01-17T02:55:14.118Z,97925.30
2018-01-17T02:56:19.835Z,97929.60
2018-01-17T02:57:26.391Z,97926.14
2018-01-17T02:58:32.882Z,97926.94
2018-01-17T02:59:38.435Z,97929.56
2018-01-17T03:00:44.147Z,97925.52
2018-01-17T03:01:49.937Z,97924.99
2018-01-17T03:02:55.672Z,97930.55
2018-01-17T03:04:01.396Z,97931.84
2018-01-17T03:05:07.144Z,97930.97
2018-01-17T03:06:12.853Z,97929.17
2018-01-17T03:07:20.170Z,97929.17
2018-01-17T03:08:25.970Z,97926.55
2018-01-17T03:09:32.439Z,97923.95
2018-01-17T03:10:38.156Z,97928.60
2018-01-17T03:11:44.665Z,97924.23
2018-01-17T03:12:50.378Z,97924.15
2018-01-17T03:13:56.139Z,97918.14
2018-01-17T03:15:01.871Z,97922.36
2018-01-17T03:16:07.607Z,97919.16
2018-01-17T03:17:13.346Z,97920.83
2018-01-17T03:18:19.175Z,97923.42
2018-01-17T03:19:24.928Z,97921.25
2018-01-17T03:20:30.635Z,97921.33
2018-01-17T03:21:37.124Z,97919.20
2018-01-17T03:22:42.840Z,97918.32
2018-01-17T03:23:49.332Z,97924.91
2018-01-17T03:24:55.073Z,97924.06
2018-01-17T03:26:00.806Z,97928.67
2018-01-17T03:27:06.517Z,97928.71
2018-01-17T03:28:13.072Z,97932.33
2018-01-17T03:29:18.799Z,97930.53
2018-01-17T03:30:24.556Z,97930.12
2018-01-17T03:31:30.295Z,97924.00
2018-01-17T03:32:36.038Z,97923.80
2018-01-17T03:33:41.767Z,97921.97
2018-01-17T03:34:47.483Z,97918.42
2018-01-17T03:35:53.240Z,97919.00
2018-01-17T03:36:58.955Z,97912.11
2018-01-17T03:38:04.687Z,97911.63
2018-01-17T03:39:10.424Z,97916.34
2018-01-17T03:40:16.156Z,97914.97
2018-01-17T03:41:21.896Z,97920.78
2018-01-17T03:42:27.596Z,97918.11
2018-01-17T03:43:33.364Z,97915.06
2018-01-17T03:44:39.857Z,97908.68
2018-01-17T03:45:45.632Z,97909.52
2018-01-17T03:46:51.580Z,97908.27
2018-01-17T03:47:57.296Z,97905.72
2018-01-17T03:49:03.007Z,97907.01
2018-01-17T03:50:08.744Z,97915.53
2018-01-17T03:51:15.310Z,97912.10
2018-01-17T03:52:21.911Z,97912.56
2018-01-17T03:53:27.479Z,97912.98
2018-01-17T03:54:33.767Z,97911.23
2018-01-17T03:55:39.601Z,97907.39
2018-01-17T03:56:45.159Z,97906.97
2018-01-17T03:57:51.201Z,97911.23
2018-01-17T03:58:56.918Z,97911.23
2018-01-17T04:00:02.646Z,97908.64
2018-01-17T04:01:09.123Z,97906.05
2018-01-17T04:02:14.876Z,97908.14
2018-01-17T04:03:20.646Z,97908.86
2018-01-17T04:04:26.396Z,97904.18
2018-01-17T04:05:32.107Z,97903.19
2018-01-17T04:06:37.821Z,97908.41
2018-01-17T04:07:44.300Z,97900.98
2018-01-17T04:08:50.050Z,97897.02
2018-01-17T04:09:55.832Z,97898.27
2018-01-17T04:11:02.314Z,97903.06
2018-01-17T04:12:08.555Z,97894.61
2018-01-17T04:13:15.070Z,97891.78
2018-01-17T04:14:20.829Z,97888.31
2018-01-17T04:15:26.536Z,97877.92
2018-01-17T04:16:32.269Z,97882.19
2018-01-17T04:17:37.996Z,97885.91
2018-01-17T04:18:44.490Z,97890.50
2018-01-17T04:19:50.305Z,97886.50
2018-01-17T04:20:56.201Z,97884.48
2018-01-17T04:22:01.924Z,97882.78
2018-01-17T04:23:07.655Z,97876.06
2018-01-17T04:24:13.404Z,97879.11
2018-01-17T04:25:19.164Z,97885.55
2018-01-17T04:26:25.649Z,97882.83
2018-01-17T04:27:32.163Z,97876.36
2018-01-17T04:28:37.906Z,97875.37
2018-01-17T04:29:43.636Z,97870.98
2018-01-17T04:30:49.392Z,97872.28
2018-01-17T04:31:55.200Z,97869.91
2018-01-17T04:33:00.806Z,97865.52
2018-01-17T04:34:07.549Z,97868.53
2018-01-17T04:35:13.270Z,97869.36
2018-01-17T04:36:19.076Z,97862.69
2018-01-17T04:37:25.378Z,97862.14
2018-01-17T04:38:31.086Z,97859.97
2018-01-17T04:39:36.486Z,97857.76
2018-01-17T04:40:42.205Z,97858.98
2018-01-17T04:41:47.944Z,97855.89
2018-01-17T04:42:53.652Z,97858.44
2018-01-17T04:44:00.156Z,97853.17
2018-01-17T04:45:05.867Z,97850.16
2018-01-17T04:46:11.602Z,97856.13
2018-01-17T04:47:17.335Z,97850.38
2018-01-17T04:48:23.093Z,97852.00
2018-01-17T04:49:28.822Z,97851.13
2018-01-17T04:50:34.560Z,97858.23
2018-01-17T04:51:40.279Z,97854.27
2018-01-17T04:52:46.052Z,97861.88
2018-01-17T04:53:51.790Z,97857.90
2018-01-17T04:54:57.517Z,97858.91
2018-01-17T04:56:03.250Z,97862.70
2018-01-17T04:57:08.975Z,97856.95
2018-01-17T04:58:14.953Z,97857.78
2018-01-17T04:59:20.696Z,97857.83
2018-01-17T05:00:26.481Z,97853.39
2018-01-17T05:01:32.960Z,97852.35
2018-01-17T05:02:39.244Z,97853.56
2018-01-17T05:03:44.988Z,97851.39
2018-01-17T05:04:50.708Z,97854.81
2018-01-17T05:05:56.419Z,97853.80
2018-01-17T05:07:02.918Z,97855.14
2018-01-17T05:08:08.668Z,97852.81
2018-01-17T05:09:14.413Z,97854.56
2018-01-17T05:10:20.151Z,97850.63
2018-01-17T05:11:25.880Z,97852.97
2018-01-17T05:12:32.031Z,97850.92
2018-01-17T05:13:37.932Z,97844.91
2018-01-17T05:14:45.206Z,97850.00
2018-01-17T05:15:50.931Z,97848.62
2018-01-17T05:16:56.659Z,97845.41
2018-01-17T05:18:02.390Z,97848.83
2018-01-17T05:19:08.402Z,97848.83
2018-01-17T05:20:15.020Z,97846.03
2018-01-17T05:21:20.913Z,97842.36
2018-01-17T05:22:27.456Z,97844.66
2018-01-17T05:23:33.955Z,97844.73
2018-01-17T05:24:39.701Z,97847.45
2018-01-17T05:25:45.459Z,97843.02
2018-01-17T05:26:51.196Z,97846.28
2018-01-17T05:27:56.938Z,97839.06
2018-01-17T05:29:02.681Z,97846.79
2018-01-17T05:30:08.395Z,97848.30
2018-01-17T05:31:14.156Z,97846.08
2018-01-17T05:32:19.872Z,97845.50
2018-01-17T05:33:25.606Z,97843.73
2018-01-17T05:34:31.307Z,97847.16
2018-01-17T05:35:37.043Z,97843.61
2018-01-17T05:36:43.210Z,97845.36
2018-01-17T05:37:48.960Z,97849.83
2018-01-17T05:38:55.468Z,97845.91
2018-01-17T05:40:00.882Z,97848.16
2018-01-17T05:41:06.943Z,97852.01
2018-01-17T05:42:12.525Z,97850.97
2018-01-17T05:43:18.248Z,97849.45
2018-01-17T05:44:24.031Z,97845.69
2018-01-17T05:45:30.506Z,97847.19
2018-01-17T05:46:36.217Z,97855.97
2018-01-17T05:47:42.748Z,97850.60
2018-01-17T05:48:48.486Z,97850.06
2018-01-17T05:49:54.231Z,97860.77
2018-01-17T05:51:00.014Z,97859.05
2018-01-17T05:52:06.487Z,97856.45
2018-01-17T05:53:12.222Z,97860.34
2018-01-17T05:54:17.923Z,97857.50
2018-01-17T05:55:23.672Z,97853.95
2018-01-17T05:56:30.183Z,97862.05
2018-01-17T05:57:35.908Z,97859.51
2018-01-17T05:58:42.184Z,97860.21
2018-01-17T05:59:47.895Z,97853.61
2018-01-17T06:00:53.524Z,97857.87
2018-01-17T06:02:00.023Z,97855.23
2018-01-17T06:03:05.433Z,97853.56
2018-01-17T06:04:11.193Z,97853.31
2018-01-17T06:05:17.183Z,97855.99
2018-01-17T06:06:22.891Z,97858.67
2018-01-17T06:07:28.616Z,97857.00
2018-01-17T06:08:34.350Z,97856.50
2018-01-17T06:09:40.126Z,97849.11
2018-01-17T06:10:45.648Z,97857.88
2018-01-17T06:11:51.363Z,97847.86
2018-01-17T06:12:57.067Z,97854.13
2018-01-17T06:14:02.807Z,97853.25
2018-01-17T06:15:08.557Z,97850.20
2018-01-17T06:16:15.038Z,97847.23
2018-01-17T06:17:21.375Z,97849.78
2018-01-17T06:18:28.258Z,97851.41
2018-01-17T06:19:34.100Z,97842.75
2018-01-17T06:20:39.962Z,97845.22
2018-01-17T06:21:45.824Z,97841.45
2018-01-17T06:22:51.623Z,97839.28
2018-01-17T06:23:58.163Z,97837.40
2018-01-17T06:25:03.901Z,97840.28
2018-01-17T06:26:09.671Z,97838.74
2018-01-17T06:27:15.391Z,97836.11
2018-01-17T06:28:21.882Z,97836.98
2018-01-17T06:29:27.622Z,97833.77
2018-01-17T06:30:33.363Z,97832.69
2018-01-17T06:31:39.129Z,97824.73
2018-01-17T06:32:44.837Z,97829.67
2018-01-17T06:33:50.555Z,97828.48
2018-01-17T06:34:56.289Z,97830.20
2018-01-17T06:36:01.997Z,97836.77
2018-01-17T06:37:07.758Z,97830.63
2018-01-17T06:38:13.476Z,97836.27
2018-01-17T06:39:19.196Z,97832.55
2018-01-17T06:40:24.940Z,97830.58
2018-01-17T06:41:30.648Z,97832.83
2018-01-17T06:42:37.148Z,97833.98
2018-01-17T06:43:42.856Z,97839.88
2018-01-17T06:44:49.339Z,97832.27
2018-01-17T06:45:55.073Z,97827.66
2018-01-17T06:47:00.812Z,97833.94
2018-01-17T06:48:06.552Z,97825.97
2018-01-17T06:49:12.289Z,97830.48
2018-01-17T06:50:17.825Z,97838.59
2018-01-17T06:51:23.578Z,97834.69
2018-01-17T06:52:29.310Z,97834.81
2018-01-17T06:53:35.070Z,97840.55
2018-01-17T06:54:41.111Z,97842.52
2018-01-17T06:55:46.639Z,97840.00
2018-01-17T06:56:52.373Z,97838.33
2018-01-17T06:57:58.107Z,97838.80
2018-01-17T06:59:04.608Z,97843.67
2018-01-17T07:00:10.413Z,97838.53
2018-01-17T07:01:16.145Z,97844.77
2018-01-17T07:02:22.621Z,97846.25
2018-01-17T07:03:28.338Z,97851.44
2018-01-17T07:04:34.632Z,97853.31
2018-01-17T07:05:40.350Z,97852.53
2018-01-17T07:06:46.081Z,97853.95
2018-01-17T07:07:52.570Z,97854.13
2018-01-17T07:08:58.294Z,97852.08
2018-01-17T07:10:03.872Z,97861.80
2018-01-17T07:11:09.813Z,97851.18
2018-01-17T07:12:15.767Z,97862.94
2018-01-17T07:13:21.311Z,97868.58
2018-01-17T07:14:27.052Z,97872.14
2018-01-17T07:15:32.618Z,97878.50
2018-01-17T07:16:39.113Z,97878.16
2018-01-17T07:17:44.846Z,97880.38
2018-01-17T07:18:50.570Z,97883.84
2018-01-17T07:19:57.070Z,97883.06
2018-01-17T07:21:02.826Z,97887.53
2018-01-17T07:22:09.336Z,97884.31
2018-01-17T07:23:15.052Z,97893.84
2018-01-17T07:24:21.533Z,97904.84
2018-01-17T07:25:27.276Z,97903.75
2018-01-17T07:26:33.035Z,97914.62
2018-01-17T07:27:38.742Z,97908.19
2018-01-17T07:28:44.473Z,97914.86
2018-01-17T07:29:50.975Z,97913.87
2018-01-17T07:30:56.706Z,97920.27
2018-01-17T07:32:02.436Z,97921.39
2018-01-17T07:33:08.175Z,97918.84
2018-01-17T07:34:13.903Z,97926.87
2018-01-17T07:35:20.398Z,97934.43
2018-01-17T07:36:26.143Z,97930.92
2018-01-17T07:37:31.930Z,97928.67
2018-01-17T07:38:38.617Z,97938.16
2018-01-17T07:39:45.111Z,97942.17
2018-01-17T07:40:50.850Z,97943.92
2018-01-17T07:41:57.337Z,97949.11
2018-01-17T07:43:03.168Z,97954.17
2018-01-17T07:44:08.919Z,97958.77
2018-01-17T07:45:14.647Z,97968.47
2018-01-17T07:46:20.371Z,97973.70
2018-01-17T07:47:26.110Z,97972.24
2018-01-17T07:48:31.870Z,97964.63
2018-01-17T07:49:37.656Z,97979.80
2018-01-17T07:50:44.153Z,97975.41
2018-01-17T07:51:49.862Z,97980.64
2018-01-17T07:52:55.592Z,97982.77
2018-01-17T07:54:01.913Z,97971.94
2018-01-17T07:55:07.464Z,97989.93
2018-01-17T07:56:14.014Z,97987.25
2018-01-17T07:57:20.758Z,97986.80
2018-01-17T07:58:26.489Z,97993.44
2018-01-17T07:59:32.246Z,98000.30
2018-01-17T08:00:37.960Z,98000.47
2018-01-17T08:01:43.673Z,97999.92
2018-01-17T08:02:50.167Z,97999.76
2018-01-17T08:03:56.649Z,98001.77
2018-01-17T08:05:02.416Z,97999.88
2018-01-17T08:06:08.327Z,98004.15
2018-01-17T08:07:14.070Z,98014.52
2018-01-17T08:08:19.807Z,98013.77
2018-01-17T08:09:25.554Z,98014.06
2018-01-17T08:10:32.066Z,98021.80
2018-01-17T08:11:38.577Z,98018.67
2018-01-17T08:12:44.295Z,98020.67
2018-01-17T08:13:50.055Z,98021.67
2018-01-17T08:14:56.547Z,98031.26
2018-01-17T08:16:02.301Z,98027.23
2018-01-17T08:17:09.167Z,98033.68
2018-01-17T08:18:15.650Z,98035.44
2018-01-17T08:19:21.379Z,98040.45
2018-01-17T08:20:27.913Z,98040.20
2018-01-17T08:21:33.651Z,98039.20
2018-01-17T08:22:39.579Z,98049.41
2018-01-17T08:23:45.296Z,98038.53
2018-01-17T08:24:51.007Z,98053.30
2018-01-17T08:25:57.311Z,98060.78
2018-01-17T08:27:03.070Z,98052.76
2018-01-17T08:28:08.788Z,98056.78
2018-01-17T08:29:14.505Z,98067.40
2018-01-17T08:30:20.253Z,98058.91
2018-01-17T08:31:26.736Z,98070.28
2018-01-17T08:32:32.477Z,98069.66
2018-01-17T08:33:38.212Z,98075.55
2018-01-17T08:34:43.927Z,98076.77
2018-01-17T08:35:49.630Z,98071.48
2018-01-17T08:36:55.341Z,98077.27
2018-01-17T08:38:01.103Z,98077.42
2018-01-17T08:39:06.492Z,98069.77
2018-01-17T08:40:12.230Z,98075.17
2018-01-17T08:41:17.943Z,98078.56
2018-01-17T08:42:23.803Z,98081.79
2018-01-17T08:43:30.531Z,98076.47
2018-01-17T08:44:38.753Z,98082.00
2018-01-17T08:45:44.575Z,98086.23
2018-01-17T08:46:50.425Z,98086.45
2018-01-17T08:47:56.926Z,98086.73
2018-01-17T08:49:02.648Z,98082.47
2018-01-17T08:50:08.372Z,98083.85
2018-01-17T08:51:14.854Z,98081.34
2018-01-17T08:52:20.564Z,98081.59
2018-01-17T08:53:27.064Z,98090.42
2018-01-17T08:54:32.814Z,98101.44
2018-01-17T08:55:38.563Z,98095.33
2018-01-17T08:56:44.294Z,98098.17
2018-01-17T08:57:50.043Z,98101.69
2018-01-17T08:58:55.807Z,98100.42
2018-01-17T09:00:01.565Z,98107.05
2018-01-17T09:01:08.067Z,98109.05
2018-01-17T09:02:13.773Z,98118.72
2018-01-17T09:03:20.271Z,98117.41
2018-01-17T09:04:26.080Z,98118.72
2018-01-17T09:05:32.605Z,98119.39
2018-01-17T09:06:38.340Z,98127.38
2018-01-17T09:07:44.046Z,98131.12
2018-01-17T09:08:49.758Z,98130.83
2018-01-17T09:09:56.243Z,98133.78
2018-01-17T09:11:01.979Z,98134.45
2018-01-17T09:12:07.729Z,98138.31
2018-01-17T09:13:13.443Z,98147.49
2018-01-17T09:14:19.939Z,98148.37
2018-01-17T09:15:25.694Z,98143.67
2018-01-17T09:16:31.437Z,98150.16
2018-01-17T09:17:37.163Z,98142.81
2018-01-17T09:18:42.879Z,98148.63
2018-01-17T09:19:48.595Z,98140.55
2018-01-17T09:20:55.115Z,98143.59
2018-01-17T09:22:00.908Z,98148.43
2018-01-17T09:23:07.401Z,98155.70
2018-01-17T09:24:13.124Z,98151.31
2018-01-17T09:25:18.831Z,98151.68
2018-01-17T09:26:25.330Z,98158.41
2018-01-17T09:27:31.253Z,98158.84
2018-01-17T09:28:37.750Z,98162.14
2018-01-17T09:29:43.478Z,98164.98
2018-01-17T09:30:49.208Z,98170.41
2018-01-17T09:31:54.935Z,98175.83
2018-01-17T09:33:00.694Z,98167.30
2018-01-17T09:34:06.086Z,98175.27
2018-01-17T09:35:12.781Z,98177.07
2018-01-17T09:36:18.507Z,98170.92
2018-01-17T09:37:25.002Z,98175.11
2018-01-17T09:38:30.755Z,98171.67
2018-01-17T09:39:36.478Z,98180.30
2018-01-17T09:40:42.184Z,98189.38
2018-01-17T09:41:48.678Z,98173.95
2018-01-17T09:42:54.407Z,98181.28
2018-01-17T09:44:00.136Z,98186.36
2018-01-17T09:45:06.613Z,98196.55
2018-01-17T09:46:12.435Z,98196.43
2018-01-17T09:47:19.212Z,98193.81
2018-01-17T09:48:24.962Z,98191.98
2018-01-17T09:49:30.700Z,98192.52
2018-01-17T09:50:36.436Z,98193.23
2018-01-17T09:51:42.171Z,98197.27
2018-01-17T09:52:47.903Z,98198.42
2018-01-17T09:53:54.426Z,98202.52
2018-01-17T09:55:00.937Z,98198.62
2018-01-17T09:56:06.664Z,98203.21
2018-01-17T09:57:13.162Z,98209.14
2018-01-17T09:58:18.907Z,98207.94
2018-01-17T09:59:24.683Z,98221.31
2018-01-17T10:00:30.437Z,98217.81
2018-01-17T10:01:36.919Z,98213.15
2018-01-17T10:02:42.650Z,98221.62
2018-01-17T10:03:48.360Z,98218.88
2018-01-17T10:04:54.077Z,98221.23
2018-01-17T10:05:59.851Z,98226.27
2018-01-17T10:07:05.596Z,98226.79
2018-01-17T10:08:12.092Z,98228.09
2018-01-17T10:09:18.239Z,98226.88
2018-01-17T10:10:23.946Z,98225.30
2018-01-17T10:11:30.481Z,98228.95
2018-01-17T10:12:36.225Z,98227.92
2018-01-17T10:13:42.951Z,98228.13
2018-01-17T10:14:48.686Z,98227.13
2018-01-17T10:15:54.420Z,98223.64
2018-01-17T10:17:00.174Z,98223.45
2018-01-17T10:18:05.907Z,98226.74
2018-01-17T10:19:11.624Z,98224.97
2018-01-17T10:20:18.105Z,98230.18
2018-01-17T10:21:23.838Z,98226.16
2018-01-17T10:22:29.596Z,98238.64
2018-01-17T10:23:35.342Z,98241.08
2018-01-17T10:24:41.066Z,98241.08
2018-01-17T10:25:46.785Z,98239.50
2018-01-17T10:26:53.263Z,98242.77
2018-01-17T10:27:59.030Z,98243.00
2018-01-17T10:29:04.747Z,98246.13
2018-01-17T10:30:10.471Z,98249.19
2018-01-17T10:31:16.988Z,98241.30
2018-01-17T10:32:22.704Z,98252.39
2018-01-17T10:33:28.439Z,98252.69
2018-01-17T10:34:34.259Z,98248.41
2018-01-17T10:35:39.984Z,98247.94
2018-01-17T10:36:46.500Z,98248.50
2018-01-17T10:37:52.993Z,98249.25
2018-01-17T10:38:59.547Z,98247.09
2018-01-17T10:40:05.444Z,98250.20
2018-01-17T10:41:11.175Z,98251.66
2018-01-17T10:42:16.899Z,98252.30
2018-01-17T10:43:23.399Z,98256.00
2018-01-17T10:44:29.200Z,98260.57
2018-01-17T10:45:34.788Z,98263.32
2018-01-17T10:46:40.520Z,98255.69
2018-01-17T10:47:46.239Z,98255.61
2018-01-17T10:48:52.053Z,98250.50
2018-01-17T10:49:57.813Z,98259.83
2018-01-17T10:51:04.359Z,98261.37
2018-01-17T10:52:10.837Z,98257.94
2018-01-17T10:53:16.565Z,98255.09
2018-01-17T10:54:23.060Z,98265.90
2018-01-17T10:55:28.827Z,98259.66
2018-01-17T10:56:34.551Z,98254.49
2018-01-17T10:57:40.270Z,98258.91
2018-01-17T10:58:46.003Z,98268.36
2018-01-17T10:59:51.534Z,98270.23
2018-01-17T11:00:58.097Z,98272.09
2018-01-17T11:02:03.818Z,98271.72
2018-01-17T11:03:10.337Z,98273.06
2018-01-17T11:04:16.086Z,98276.59
2018-01-17T11:05:21.797Z,98280.47
2018-01-17T11:06:27.554Z,98282.13
2018-01-17T11:07:33.105Z,98284.59
2018-01-17T11:08:38.874Z,98284.97
2018-01-17T11:09:44.793Z,98291.20
2018-01-17T11:10:50.529Z,98296.28
2018-01-17T11:11:56.264Z,98295.02
2018-01-17T11:13:01.980Z,98303.41
2018-01-17T11:14:07.692Z,98288.94
2018-01-17T11:15:14.176Z,98301.59
2018-01-17T11:16:19.956Z,98304.76
2018-01-17T11:17:25.721Z,98296.98
2018-01-17T11:18:31.444Z,98307.13
2018-01-17T11:19:37.182Z,98305.52
2018-01-17T11:20:42.696Z,98298.85
2018-01-17T11:21:48.483Z,98309.13
2018-01-17T11:22:54.234Z,98297.13
2018-01-17T11:24:00.711Z,98306.77
2018-01-17T11:25:06.452Z,98313.14
2018-01-17T11:26:12.192Z,98302.98
2018-01-17T11:27:17.928Z,98308.42
2018-01-17T11:28:23.670Z,98306.28
2018-01-17T11:29:29.387Z,98315.03
2018-01-17T11:30:35.886Z,98310.66
2018-01-17T11:31:41.612Z,98308.57
2018-01-17T11:32:47.177Z,98311.47
2018-01-17T11:33:52.964Z,98321.33
2018-01-17T11:34:58.702Z,98325.88
2018-01-17T11:36:04.440Z,98323.66
2018-01-17T11:37:10.173Z,98329.42
2018-01-17T11:38:15.902Z,98330.86
2018-01-17T11:39:21.731Z,98322.51
2018-01-17T11:40:27.539Z,98325.09
2018-01-17T11:41:33.286Z,98324.41
2018-01-17T11:42:39.012Z,98327.00
2018-01-17T11:43:45.627Z,98325.55
2018-01-17T11:44:51.037Z,98332.22
2018-01-17T11:45:56.788Z,98325.87
2018-01-17T11:47:02.502Z,98340.72
2018-01-17T11:48:08.229Z,98327.00
2018-01-17T11:49:14.700Z,98343.19
2018-01-17T11:50:20.464Z,98344.06
2018-01-17T11:51:26.175Z,98347.31
2018-01-17T11:52:31.890Z,98345.07
2018-01-17T11:53:37.639Z,98342.73
2018-01-17T11:54:43.407Z,98343.62
2018-01-17T11:55:49.174Z,98341.62
2018-01-17T11:56:54.893Z,98347.48
2018-01-17T11:58:00.616Z,98353.11
2018-01-17T11:59:07.116Z,98355.61
2018-01-17T12:00:12.844Z,98350.45
2018-01-17T12:01:18.602Z,98359.34
2018-01-17T12:02:24.354Z,98356.21
2018-01-17T12:03:30.078Z,98366.00
2018-01-17T12:04:35.807Z,98365.56
2018-01-17T12:05:41.540Z,98363.37
2018-01-17T12:06:47.284Z,98367.12
2018-01-17T12:07:53.027Z,98365.13
2018-01-17T12:08:58.982Z,98373.53
2018-01-17T12:10:04.143Z,98377.04
2018-01-17T12:11:09.853Z,98378.71
2018-01-17T12:12:15.670Z,98383.80
2018-01-17T12:13:22.152Z,98378.45
2018-01-17T12:14:27.963Z,98380.72
2018-01-17T12:15:33.694Z,98384.83
2018-01-17T12:16:40.211Z,98380.28
2018-01-17T12:17:45.970Z,98389.31
2018-01-17T12:18:51.707Z,98391.32
2018-01-17T12:19:57.439Z,98390.44
2018-01-17T12:21:03.152Z,98392.06
2018-01-17T12:22:08.895Z,98403.52
2018-01-17T12:23:14.806Z,98397.60
2018-01-17T12:24:21.322Z,98404.88
2018-01-17T12:25:27.115Z,98411.31
2018-01-17T12:26:33.597Z,98407.19
2018-01-17T12:27:39.311Z,98412.41
2018-01-17T12:28:45.825Z,98423.13
2018-01-17T12:29:51.574Z,98419.85
2018-01-17T12:30:57.314Z,98425.98
2018-01-17T12:32:03.047Z,98418.62
2018-01-17T12:33:08.783Z,98424.29
2018-01-17T12:34:14.553Z,98418.84
2018-01-17T12:35:20.261Z,98426.13
2018-01-17T12:36:26.064Z,98418.66
2018-01-17T12:37:32.558Z,98426.23
2018-01-17T12:38:38.330Z,98429.49
2018-01-17T12:39:44.080Z,98428.55
2018-01-17T12:40:49.801Z,98431.84
2018-01-17T12:41:55.283Z,98425.64
2018-01-17T12:43:01.206Z,98433.69
2018-01-17T12:44:07.723Z,98430.66
2018-01-17T12:45:13.472Z,98442.91
2018-01-17T12:46:19.219Z,98445.33
2018-01-17T12:47:25.146Z,98443.23
2018-01-17T12:48:30.901Z,98453.52
2018-01-17T12:49:37.411Z,98447.47
2018-01-17T12:50:43.992Z,98455.07
2018-01-17T12:51:49.765Z,98455.95
2018-01-17T12:52:55.556Z,98463.19
2018-01-17T12:54:02.092Z,98459.11